createdAt,value
2023-06-09T00:01:32.018Z,17.58
2023-06-09T00:03:58.976Z,17.46
2023-06-09T00:06:25.547Z,17.46
2023-06-09T00:08:52.858Z,17.40
2023-06-09T00:11:19.953Z,17.37
2023-06-09T00:13:46.812Z,17.29
2023-06-09T00:16:13.308Z,17.25
2023-06-09T00:18:41.347Z,17.25
2023-06-09T00:21:07.929Z,17.23
2023-06-09T00:23:35.183Z,17.23
2023-06-09T00:26:01.807Z,17.21
2023-06-09T00:28:28.356Z,17.18
2023-06-09T00:30:54.885Z,17.18
2023-06-09T00:33:21.440Z,17.17
2023-06-09T00:35:50.270Z,17.16
2023-06-09T00:38:16.769Z,17.12
2023-06-09T00:40:43.263Z,17.08
2023-06-09T00:43:09.785Z,17.00
2023-06-09T00:45:36.317Z,16.93
2023-06-09T00:48:02.996Z,16.95
2023-06-09T00:50:30.274Z,16.89
2023-06-09T00:52:57.401Z,16.85
2023-06-09T00:55:26.232Z,16.87
2023-06-09T00:57:56.824Z,16.77
2023-06-09T01:00:28.480Z,16.67
2023-06-09T01:03:02.003Z,16.63
2023-06-09T01:05:40.042Z,16.56
2023-06-09T01:08:26.800Z,16.54
2023-06-09T01:11:06.126Z,16.55
2023-06-09T01:14:08.367Z,16.67
2023-06-09T01:16:56.108Z,16.75
2023-06-09T01:19:33.950Z,16.90
2023-06-09T01:22:09.924Z,17.02
2023-06-09T01:24:54.979Z,17.06
2023-06-09T01:27:23.146Z,17.13
2023-06-09T01:29:52.698Z,17.13
2023-06-09T01:32:20.601Z,17.22
2023-06-09T01:34:48.580Z,17.28
2023-06-09T01:37:15.651Z,17.31
2023-06-09T01:39:42.580Z,17.31
2023-06-09T01:42:09.234Z,17.41
2023-06-09T01:44:35.841Z,17.35
2023-06-09T01:47:03.158Z,17.27
2023-06-09T01:49:41.663Z,17.14
2023-06-09T01:52:18.836Z,17.02
2023-06-09T01:54:55.519Z,16.91
2023-06-09T01:57:39.295Z,16.76
2023-06-09T02:00:08.263Z,16.66
2023-06-09T02:02:37.697Z,16.70
2023-06-09T02:05:08.055Z,16.68
2023-06-09T02:07:35.750Z,16.69
2023-06-09T02:10:03.905Z,16.71
2023-06-09T02:12:34.596Z,16.68
2023-06-09T02:15:01.693Z,16.71
2023-06-09T02:17:29.060Z,16.75
2023-06-09T02:19:56.140Z,16.73
2023-06-09T02:22:23.085Z,16.85
2023-06-09T02:24:49.562Z,16.92
2023-06-09T02:27:16.146Z,16.87
2023-06-09T02:29:42.662Z,16.91
2023-06-09T02:32:09.477Z,16.89
2023-06-09T02:34:36.183Z,16.93
2023-06-09T02:37:03.427Z,16.91
2023-06-09T02:39:29.951Z,16.94
2023-06-09T02:41:56.490Z,17.04
2023-06-09T02:44:23.097Z,17.00
2023-06-09T02:46:49.548Z,17.00
2023-06-09T02:49:17.464Z,16.75
2023-06-09T02:51:44.323Z,16.76
2023-06-09T02:54:10.801Z,16.64
2023-06-09T02:56:37.351Z,16.62
2023-06-09T02:59:03.945Z,16.54
2023-06-09T03:01:36.115Z,16.41
2023-06-09T03:04:08.803Z,16.41
2023-06-09T03:06:36.607Z,16.39
2023-06-09T03:09:04.076Z,16.39
2023-06-09T03:11:31.513Z,16.39
2023-06-09T03:13:58.035Z,16.52
2023-06-09T03:16:24.539Z,16.68
2023-06-09T03:18:51.098Z,16.76
2023-06-09T03:21:17.858Z,16.80
2023-06-09T03:23:44.432Z,16.87
2023-06-09T03:26:11.029Z,16.90
2023-06-09T03:28:37.493Z,16.95
2023-06-09T03:31:04.059Z,16.98
2023-06-09T03:33:31.049Z,17.06
2023-06-09T03:35:57.651Z,16.96
2023-06-09T03:38:24.207Z,16.97
2023-06-09T03:40:50.753Z,17.01
2023-06-09T03:43:17.300Z,17.03
2023-06-09T03:45:43.781Z,17.04
2023-06-09T03:48:10.386Z,16.83
2023-06-09T03:50:36.955Z,16.78
2023-06-09T03:53:03.448Z,16.75
2023-06-09T03:55:32.584Z,16.64
2023-06-09T03:57:59.311Z,16.71
2023-06-09T04:00:26.288Z,16.58
2023-06-09T04:02:52.863Z,16.57
2023-06-09T04:05:19.404Z,16.51
2023-06-09T04:07:45.995Z,16.59
2023-06-09T04:10:12.570Z,16.62
2023-06-09T04:12:41.968Z,16.73
2023-06-09T04:15:09.222Z,16.68
2023-06-09T04:17:37.887Z,16.63
2023-06-09T04:20:09.434Z,16.65
2023-06-09T04:22:36.670Z,16.60
2023-06-09T04:25:03.692Z,16.63
2023-06-09T04:27:31.570Z,16.60
2023-06-09T04:29:58.745Z,16.62
2023-06-09T04:32:25.503Z,16.80
2023-06-09T04:34:53.734Z,16.72
2023-06-09T04:37:20.387Z,16.60
2023-06-09T04:39:48.222Z,16.51
2023-06-09T04:42:15.301Z,16.57
2023-06-09T04:44:44.592Z,16.65
2023-06-09T04:47:11.800Z,16.69
2023-06-09T04:49:38.660Z,16.83
2023-06-09T04:52:08.670Z,16.82
2023-06-09T04:54:35.465Z,16.81
2023-06-09T04:57:03.295Z,16.81
2023-06-09T04:59:29.980Z,16.94
2023-06-09T05:01:56.839Z,17.09
2023-06-09T05:04:23.445Z,17.01
2023-06-09T05:06:50.149Z,17.19
2023-06-09T05:09:16.737Z,17.28
2023-06-09T05:11:43.301Z,17.45
2023-06-09T05:14:09.846Z,17.31
2023-06-09T05:16:36.536Z,17.68
2023-06-09T05:19:03.504Z,17.79
2023-06-09T05:21:30.590Z,17.91
2023-06-09T05:23:57.248Z,17.99
2023-06-09T05:26:24.048Z,18.16
2023-06-09T05:28:50.641Z,18.24
2023-06-09T05:31:18.550Z,18.34
2023-06-09T05:33:45.500Z,18.39
2023-06-09T05:36:13.188Z,18.43
2023-06-09T05:38:39.805Z,18.49
2023-06-09T05:41:06.469Z,18.53
2023-06-09T05:43:33.483Z,18.67
2023-06-09T05:46:00.394Z,18.61
2023-06-09T05:48:27.041Z,18.72
2023-06-09T05:50:53.576Z,18.74
2023-06-09T05:53:20.089Z,18.75
2023-06-09T05:55:46.535Z,18.73
2023-06-09T05:58:14.528Z,18.58
2023-06-09T06:00:41.233Z,18.72
2023-06-09T06:03:09.616Z,18.90
2023-06-09T06:05:36.230Z,18.99
2023-06-09T06:08:02.782Z,18.81
2023-06-09T06:10:29.359Z,19.08
2023-06-09T06:12:59.189Z,19.29
2023-06-09T06:15:26.125Z,19.11
2023-06-09T06:17:52.658Z,19.42
2023-06-09T06:20:19.284Z,19.43
2023-06-09T06:22:45.799Z,19.49
2023-06-09T06:25:14.246Z,19.68
2023-06-09T06:27:42.223Z,19.72
2023-06-09T06:30:10.029Z,19.77
2023-06-09T06:32:39.304Z,19.70
2023-06-09T06:35:06.767Z,19.57
2023-06-09T06:37:34.222Z,19.54
2023-06-09T06:40:00.758Z,19.79
2023-06-09T06:42:27.217Z,19.79
2023-06-09T06:44:56.233Z,19.90
2023-06-09T06:47:24.320Z,19.93
2023-06-09T06:49:50.802Z,19.95
2023-06-09T06:52:17.309Z,19.98
2023-06-09T06:54:43.821Z,20.02
2023-06-09T06:57:10.523Z,20.10
2023-06-09T06:59:37.019Z,20.17
2023-06-09T07:02:03.859Z,20.27
2023-06-09T07:04:30.454Z,20.21
2023-06-09T07:06:57.222Z,20.29
2023-06-09T07:09:25.393Z,20.33
2023-06-09T07:11:51.863Z,20.24
2023-06-09T07:14:18.540Z,20.47
2023-06-09T07:16:45.002Z,20.64
2023-06-09T07:19:11.626Z,20.81
2023-06-09T07:21:38.624Z,20.99
2023-06-09T07:24:05.662Z,21.08
2023-06-09T07:26:33.419Z,21.23
2023-06-09T07:28:59.991Z,21.49
2023-06-09T07:31:26.625Z,21.65
2023-06-09T07:33:53.122Z,21.83
2023-06-09T07:36:20.468Z,21.97
2023-06-09T07:38:47.690Z,22.16
2023-06-09T07:41:14.974Z,22.26
2023-06-09T07:43:41.487Z,22.38
2023-06-09T07:46:08.482Z,22.48
2023-06-09T07:48:34.999Z,22.55
2023-06-09T07:51:04.254Z,22.54
2023-06-09T07:53:31.044Z,22.70
2023-06-09T07:55:58.369Z,22.73
2023-06-09T07:58:24.876Z,22.77
2023-06-09T08:00:52.245Z,22.83
2023-06-09T08:03:19.042Z,22.82
2023-06-09T08:05:45.631Z,22.84
2023-06-09T08:08:12.089Z,22.94
2023-06-09T08:10:38.583Z,22.88
2023-06-09T08:13:05.147Z,22.89
2023-06-09T08:15:32.014Z,22.80
2023-06-09T08:17:58.546Z,22.76
2023-06-09T08:20:25.178Z,22.73
2023-06-09T08:22:51.703Z,22.74
2023-06-09T08:25:18.323Z,22.46
2023-06-09T08:27:44.900Z,22.80
2023-06-09T08:30:11.962Z,22.86
2023-06-09T08:32:41.296Z,22.79
2023-06-09T08:35:09.192Z,22.85
2023-06-09T08:37:37.565Z,22.93
2023-06-09T08:40:07.037Z,22.80
2023-06-09T08:42:34.033Z,22.87
2023-06-09T08:45:05.089Z,22.71
2023-06-09T08:47:34.762Z,22.68
2023-06-09T08:50:03.724Z,22.83
2023-06-09T08:52:31.314Z,22.68
2023-06-09T08:55:00.171Z,22.67
2023-06-09T08:57:27.115Z,22.64
2023-06-09T08:59:54.298Z,22.70
2023-06-09T09:02:20.799Z,22.56
2023-06-09T09:04:48.161Z,22.66
2023-06-09T09:07:15.194Z,22.69
2023-06-09T09:09:42.230Z,22.79
2023-06-09T09:12:13.822Z,22.85
2023-06-09T09:14:42.923Z,23.04
2023-06-09T09:17:14.178Z,23.30
2023-06-09T09:19:52.992Z,23.53
2023-06-09T09:22:19.517Z,23.64
2023-06-09T09:24:47.083Z,23.82
2023-06-09T09:27:18.881Z,23.96
2023-06-09T09:29:46.279Z,24.09
2023-06-09T09:32:13.925Z,24.25
2023-06-09T09:34:42.378Z,24.37
2023-06-09T09:37:14.564Z,24.50
2023-06-09T09:39:53.961Z,24.59
2023-06-09T09:42:21.606Z,24.64
2023-06-09T09:44:52.021Z,24.71
2023-06-09T09:47:19.756Z,24.78
2023-06-09T09:49:51.306Z,24.72
2023-06-09T09:52:28.419Z,24.79
2023-06-09T09:54:57.445Z,24.84
2023-06-09T09:57:27.058Z,24.95
2023-06-09T09:59:53.963Z,24.97
2023-06-09T10:02:25.288Z,24.88
2023-06-09T10:04:52.229Z,24.74
2023-06-09T10:07:22.512Z,24.78
2023-06-09T10:09:54.633Z,24.80
2023-06-09T10:12:22.863Z,24.95
2023-06-09T10:14:52.142Z,24.77
2023-06-09T10:17:23.109Z,24.81
2023-06-09T10:19:53.443Z,24.77
2023-06-09T10:22:21.005Z,24.71
2023-06-09T10:24:47.805Z,24.68
2023-06-09T10:27:15.117Z,24.74
2023-06-09T10:29:42.266Z,24.79
2023-06-09T10:32:12.126Z,24.72
2023-06-09T10:34:41.987Z,24.82
2023-06-09T10:37:08.485Z,24.72
2023-06-09T10:39:56.846Z,24.61
2023-06-09T10:42:40.685Z,24.70
2023-06-09T10:45:15.121Z,24.52
2023-06-09T10:47:49.975Z,24.58
2023-06-09T10:50:25.955Z,24.50
2023-06-09T10:52:57.712Z,24.40
2023-06-09T10:55:28.219Z,24.40
2023-06-09T10:57:56.172Z,24.32
2023-06-09T11:00:24.228Z,24.42
2023-06-09T11:02:51.831Z,24.49
2023-06-09T11:05:21.418Z,24.35
2023-06-09T11:07:53.582Z,24.28
2023-06-09T11:10:20.057Z,24.19
2023-06-09T11:12:53.040Z,24.25
2023-06-09T11:15:20.049Z,24.44
2023-06-09T11:17:48.894Z,24.56
2023-06-09T11:20:18.700Z,24.69
2023-06-09T11:22:45.825Z,24.79
2023-06-09T11:25:18.502Z,24.89
2023-06-09T11:27:58.640Z,25.04
2023-06-09T11:30:31.081Z,25.09
2023-06-09T11:32:59.124Z,25.19
2023-06-09T11:35:29.338Z,25.18
2023-06-09T11:37:59.201Z,25.27
2023-06-09T11:40:26.758Z,25.35
2023-06-09T11:42:53.377Z,25.32
2023-06-09T11:45:23.851Z,25.34
2023-06-09T11:47:50.908Z,25.45
2023-06-09T11:50:17.508Z,25.49
2023-06-09T11:52:46.313Z,25.52
2023-06-09T11:55:15.902Z,25.61
2023-06-09T11:57:42.934Z,25.58
2023-06-09T12:00:14.884Z,25.67
2023-06-09T12:02:46.511Z,25.61
2023-06-09T12:05:13.840Z,25.60
2023-06-09T12:07:45.409Z,25.59
2023-06-09T12:10:18.351Z,25.56
2023-06-09T12:12:49.538Z,25.54
2023-06-09T12:15:17.505Z,25.51
2023-06-09T12:17:45.312Z,25.53
2023-06-09T12:20:27.315Z,25.51
2023-06-09T12:22:55.983Z,25.39
2023-06-09T12:25:28.216Z,25.34
2023-06-09T12:27:56.239Z,25.21
2023-06-09T12:30:36.114Z,25.31
2023-06-09T12:33:10.819Z,25.25
2023-06-09T12:35:49.051Z,25.44
2023-06-09T12:38:17.674Z,25.43
2023-06-09T12:40:50.006Z,25.28
2023-06-09T12:43:21.028Z,25.27
2023-06-09T12:45:48.854Z,25.21
2023-06-09T12:48:15.919Z,25.14
2023-06-09T12:50:43.079Z,25.16
2023-06-09T12:53:11.156Z,25.02
2023-06-09T12:55:39.182Z,25.05
2023-06-09T12:58:06.452Z,25.08
2023-06-09T13:00:33.739Z,25.03
2023-06-09T13:03:04.189Z,25.10
2023-06-09T13:05:32.049Z,25.00
2023-06-09T13:07:59.848Z,24.93
2023-06-09T13:10:27.784Z,24.83
2023-06-09T13:12:54.737Z,24.82
2023-06-09T13:15:23.133Z,24.68
2023-06-09T13:17:50.861Z,24.72
2023-06-09T13:20:18.697Z,24.96
2023-06-09T13:22:46.258Z,25.13
2023-06-09T13:25:13.259Z,25.19
2023-06-09T13:27:45.348Z,25.48
2023-06-09T13:30:12.550Z,25.48
2023-06-09T13:32:39.728Z,25.64
2023-06-09T13:35:07.079Z,25.46
2023-06-09T13:37:33.759Z,25.69
2023-06-09T13:40:00.314Z,25.77
2023-06-09T13:42:26.792Z,25.82
2023-06-09T13:44:53.399Z,25.92
2023-06-09T13:47:19.934Z,25.93
2023-06-09T13:49:46.804Z,25.92
2023-06-09T13:52:14.348Z,25.91
2023-06-09T13:54:40.811Z,25.98
2023-06-09T13:57:09.936Z,25.82
2023-06-09T13:59:38.145Z,25.85
2023-06-09T14:02:05.910Z,25.99
2023-06-09T14:04:33.432Z,25.87
2023-06-09T14:07:00.200Z,26.04
2023-06-09T14:09:26.725Z,25.95
2023-06-09T14:11:53.246Z,25.67
2023-06-09T14:14:19.769Z,25.85
2023-06-09T14:16:47.204Z,25.87
2023-06-09T14:19:20.608Z,25.82
2023-06-09T14:21:47.075Z,25.88
2023-06-09T14:24:13.626Z,25.75
2023-06-09T14:26:40.183Z,25.67
2023-06-09T14:29:06.641Z,25.73
2023-06-09T14:31:33.198Z,25.63
2023-06-09T14:33:59.783Z,25.43
2023-06-09T14:36:26.442Z,25.49
2023-06-09T14:38:52.927Z,25.58
2023-06-09T14:41:19.593Z,25.51
2023-06-09T14:43:46.188Z,25.50
2023-06-09T14:46:12.695Z,25.39
2023-06-09T14:48:39.202Z,25.44
2023-06-09T14:51:05.881Z,25.31
2023-06-09T14:53:32.409Z,25.39
2023-06-09T14:55:59.028Z,25.30
2023-06-09T14:58:25.584Z,25.20
2023-06-09T15:00:52.046Z,25.20
2023-06-09T15:03:19.095Z,25.21
2023-06-09T15:05:45.966Z,25.14
2023-06-09T15:08:12.667Z,25.19
2023-06-09T15:10:44.060Z,25.12
2023-06-09T15:13:11.784Z,25.04
2023-06-09T15:15:38.466Z,25.10
2023-06-09T15:18:06.883Z,25.07
2023-06-09T15:20:34.809Z,24.97
2023-06-09T15:23:03.836Z,25.06
2023-06-09T15:25:34.902Z,25.13
2023-06-09T15:28:06.567Z,25.17
2023-06-09T15:30:35.500Z,25.22
2023-06-09T15:33:10.271Z,25.30
2023-06-09T15:35:42.069Z,25.33
2023-06-09T15:38:14.962Z,25.27
2023-06-09T15:40:44.718Z,25.28
2023-06-09T15:43:13.366Z,25.42
2023-06-09T15:45:44.629Z,25.57
2023-06-09T15:48:12.240Z,25.43
2023-06-09T15:50:40.475Z,25.52
2023-06-09T15:53:08.454Z,25.58
2023-06-09T15:55:35.115Z,25.51
2023-06-09T15:58:04.144Z,25.41
2023-06-09T16:00:34.986Z,25.31
2023-06-09T16:03:05.746Z,25.49
2023-06-09T16:05:34.999Z,25.20
2023-06-09T16:08:04.615Z,25.17
2023-06-09T16:10:32.683Z,24.95
2023-06-09T16:13:00.414Z,24.97
2023-06-09T16:15:30.183Z,25.00
2023-06-09T16:17:57.926Z,24.60
2023-06-09T16:20:24.430Z,24.62
2023-06-09T16:22:50.920Z,24.60
2023-06-09T16:25:17.406Z,24.64
2023-06-09T16:27:44.912Z,24.65
2023-06-09T16:30:11.985Z,24.67
2023-06-09T16:32:40.356Z,24.66
2023-06-09T16:35:10.033Z,24.58
2023-06-09T16:37:36.734Z,24.44
2023-06-09T16:40:05.844Z,24.11
2023-06-09T16:42:33.116Z,24.30
2023-06-09T16:44:59.613Z,24.35
2023-06-09T16:47:26.172Z,24.25
2023-06-09T16:49:52.744Z,24.24
2023-06-09T16:52:20.011Z,24.01
2023-06-09T16:54:46.505Z,24.06
2023-06-09T16:57:13.287Z,24.00
2023-06-09T16:59:40.776Z,23.87
2023-06-09T17:02:07.617Z,23.83
2023-06-09T17:04:34.294Z,23.84
2023-06-09T17:07:00.751Z,23.75
2023-06-09T17:09:27.255Z,23.74
2023-06-09T17:11:53.768Z,23.86
2023-06-09T17:14:20.901Z,23.80
2023-06-09T17:16:47.569Z,23.87
2023-06-09T17:19:14.220Z,23.74
2023-06-09T17:21:40.674Z,23.53
2023-06-09T17:24:07.761Z,23.48
2023-06-09T17:26:34.377Z,23.61
2023-06-09T17:29:01.324Z,23.72
2023-06-09T17:31:27.954Z,23.53
2023-06-09T17:33:54.633Z,23.44
2023-06-09T17:36:22.046Z,23.40
2023-06-09T17:38:50.667Z,23.29
2023-06-09T17:41:19.571Z,23.19
2023-06-09T17:43:46.112Z,23.39
2023-06-09T17:46:13.128Z,23.04
2023-06-09T17:48:44.609Z,23.30
2023-06-09T17:51:13.022Z,23.28
2023-06-09T17:53:42.214Z,23.22
2023-06-09T17:56:09.372Z,22.96
2023-06-09T17:58:35.993Z,23.03
2023-06-09T18:01:02.603Z,22.83
2023-06-09T18:03:29.216Z,22.92
2023-06-09T18:05:55.897Z,23.00
2023-06-09T18:08:23.058Z,22.93
2023-06-09T18:10:49.720Z,22.91
2023-06-09T18:13:17.198Z,22.91
2023-06-09T18:15:44.748Z,22.82
2023-06-09T18:18:11.572Z,22.62
2023-06-09T18:20:38.226Z,22.60
2023-06-09T18:23:04.769Z,22.55
2023-06-09T18:25:32.863Z,22.46
2023-06-09T18:28:01.839Z,22.29
2023-06-09T18:30:29.428Z,22.20
2023-06-09T18:32:55.997Z,22.09
2023-06-09T18:35:22.511Z,21.51
2023-06-09T18:37:49.011Z,21.40
2023-06-09T18:40:15.634Z,21.33
2023-06-09T18:42:42.161Z,21.21
2023-06-09T18:45:09.678Z,21.32
2023-06-09T18:47:36.855Z,21.27
2023-06-09T18:50:03.730Z,21.05
2023-06-09T18:52:31.200Z,20.51
2023-06-09T18:54:57.742Z,20.10
2023-06-09T18:57:24.445Z,20.15
2023-06-09T18:59:51.022Z,19.96
2023-06-09T19:02:17.777Z,20.21
2023-06-09T19:04:45.853Z,20.12
2023-06-09T19:07:12.857Z,19.71
2023-06-09T19:09:39.489Z,19.96
2023-06-09T19:12:06.906Z,19.68
2023-06-09T19:14:33.802Z,19.53
2023-06-09T19:17:00.407Z,19.55
2023-06-09T19:19:26.954Z,19.63
2023-06-09T19:21:55.181Z,19.16
2023-06-09T19:24:21.926Z,19.17
2023-06-09T19:26:48.578Z,18.84
2023-06-09T19:29:15.386Z,18.89
2023-06-09T19:31:42.014Z,19.08
2023-06-09T19:34:08.556Z,19.18
2023-06-09T19:36:35.153Z,19.06
2023-06-09T19:39:02.654Z,19.07
2023-06-09T19:41:29.255Z,18.99
2023-06-09T19:43:55.767Z,19.03
2023-06-09T19:46:22.364Z,18.98
2023-06-09T19:48:48.894Z,18.87
2023-06-09T19:51:16.542Z,18.81
2023-06-09T19:53:43.082Z,18.77
2023-06-09T19:56:12.630Z,18.84
2023-06-09T19:58:39.690Z,18.66
2023-06-09T20:01:06.321Z,18.83
2023-06-09T20:03:33.066Z,18.59
2023-06-09T20:05:59.636Z,18.40
2023-06-09T20:08:26.486Z,18.63
2023-06-09T20:10:52.988Z,18.25
2023-06-09T20:13:19.551Z,18.21
2023-06-09T20:15:46.197Z,17.98
2023-06-09T20:18:13.498Z,17.84
2023-06-09T20:20:42.808Z,17.97
2023-06-09T20:23:11.491Z,17.74
2023-06-09T20:25:38.840Z,18.00
2023-06-09T20:28:05.539Z,17.69
2023-06-09T20:30:32.080Z,17.52
2023-06-09T20:32:58.628Z,17.51
2023-06-09T20:35:25.974Z,17.32
2023-06-09T20:37:53.440Z,17.11
2023-06-09T20:40:20.200Z,17.11
2023-06-09T20:42:47.224Z,17.23
2023-06-09T20:45:17.379Z,17.05
2023-06-09T20:47:45.046Z,16.99
2023-06-09T20:50:11.689Z,16.99
2023-06-09T20:52:38.248Z,16.95
2023-06-09T20:55:05.348Z,16.98
2023-06-09T20:57:31.974Z,16.78
2023-06-09T20:59:58.741Z,16.72
2023-06-09T21:02:26.887Z,16.80
2023-06-09T21:04:55.204Z,16.77
2023-06-09T21:07:23.016Z,16.78
2023-06-09T21:09:49.523Z,16.66
2023-06-09T21:12:16.425Z,16.60
2023-06-09T21:14:43.060Z,16.77
2023-06-09T21:17:10.341Z,16.66
2023-06-09T21:19:42.885Z,16.32
2023-06-09T21:22:09.364Z,16.19
2023-06-09T21:24:35.818Z,16.34
2023-06-09T21:27:02.417Z,16.44
2023-06-09T21:29:28.917Z,16.36
2023-06-09T21:31:55.596Z,16.33
2023-06-09T21:34:22.117Z,16.28
2023-06-09T21:36:48.619Z,16.53
2023-06-09T21:39:15.100Z,16.66
2023-06-09T21:41:41.882Z,16.62
2023-06-09T21:44:08.410Z,16.79
2023-06-09T21:46:34.906Z,16.84
2023-06-09T21:49:01.454Z,16.86
2023-06-09T21:51:27.943Z,16.60
2023-06-09T21:53:54.487Z,16.59
2023-06-09T21:56:21.026Z,16.63
2023-06-09T21:58:47.587Z,16.59
2023-06-09T22:01:14.173Z,16.62
2023-06-09T22:03:40.779Z,16.50
2023-06-09T22:06:07.548Z,16.57
2023-06-09T22:08:35.894Z,16.52
2023-06-09T22:11:03.977Z,16.25
2023-06-09T22:13:30.642Z,16.14
2023-06-09T22:15:57.113Z,16.20
2023-06-09T22:18:23.639Z,16.19
2023-06-09T22:20:50.165Z,16.18
2023-06-09T22:23:16.708Z,16.00
2023-06-09T22:25:43.367Z,15.97
2023-06-09T22:28:09.888Z,16.02
2023-06-09T22:30:36.414Z,15.82
2023-06-09T22:33:03.252Z,15.85
2023-06-09T22:35:29.876Z,15.87
2023-06-09T22:37:56.564Z,15.79
2023-06-09T22:40:23.142Z,15.80
2023-06-09T22:42:50.981Z,15.51
2023-06-09T22:45:18.217Z,15.59
2023-06-09T22:47:46.328Z,15.59
2023-06-09T22:50:14.454Z,15.48
2023-06-09T22:52:44.351Z,15.52
2023-06-09T22:55:12.552Z,15.54
2023-06-09T22:57:40.038Z,15.42
2023-06-09T23:00:08.806Z,15.28
2023-06-09T23:02:36.143Z,15.26
2023-06-09T23:05:06.366Z,15.42
2023-06-09T23:07:33.054Z,15.07
2023-06-09T23:09:59.547Z,15.10
2023-06-09T23:12:26.239Z,15.22
2023-06-09T23:14:54.036Z,15.21
2023-06-09T23:17:20.657Z,14.94
2023-06-09T23:19:47.248Z,15.09
2023-06-09T23:22:14.304Z,15.20
2023-06-09T23:24:45.922Z,15.06
2023-06-09T23:27:13.007Z,15.01
2023-06-09T23:29:39.513Z,15.04
2023-06-09T23:32:12.667Z,15.06
2023-06-09T23:34:42.657Z,15.10
2023-06-09T23:37:13.590Z,15.13
2023-06-09T23:39:40.803Z,14.92
2023-06-09T23:42:08.810Z,15.12
2023-06-09T23:44:35.312Z,15.22
2023-06-09T23:47:02.757Z,15.25
2023-06-09T23:49:29.297Z,15.29
2023-06-09T23:51:55.963Z,15.38
2023-06-09T23:54:23.487Z,15.47
2023-06-09T23:56:50.010Z,15.63
2023-06-09T23:59:16.886Z,15.63
